createdAt,value
2022-11-29T00:03:01.657Z,-10.52
2022-11-29T00:13:06.210Z,-10.59
2022-11-29T00:23:09.768Z,-10.65
2022-11-29T00:33:14.333Z,-10.70
2022-11-29T00:43:18.790Z,-10.75
2022-11-29T00:53:23.148Z,-10.81
2022-11-29T01:03:26.085Z,-10.86
2022-11-29T01:13:31.172Z,-10.94
2022-11-29T01:23:35.191Z,-11.00
2022-11-29T01:33:40.188Z,-11.06
2022-11-29T01:44:00.828Z,-11.13
2022-11-29T01:54:06.056Z,-11.18
2022-11-29T02:04:09.153Z,-11.27
2022-11-29T02:14:31.306Z,-11.33
2022-11-29T02:24:58.195Z,-11.38
2022-11-29T02:35:18.577Z,-11.43
2022-11-29T02:45:47.022Z,-11.47
2022-11-29T02:56:02.619Z,-11.53
2022-11-29T03:06:16.172Z,-11.58
2022-11-29T03:16:30.127Z,-11.61
2022-11-29T03:26:40.479Z,-11.63
2022-11-29T03:36:53.835Z,-11.65
2022-11-29T03:47:02.522Z,-11.67
2022-11-29T03:57:07.429Z,-11.70
2022-11-29T04:07:31.362Z,-11.73
2022-11-29T04:18:25.313Z,-11.75
2022-11-29T04:28:57.795Z,-11.78
2022-11-29T04:39:36.845Z,-11.80
2022-11-29T04:50:03.723Z,-11.82
2022-11-29T05:00:11.241Z,-11.84
2022-11-29T05:10:25.702Z,-11.88
2022-11-29T05:20:41.828Z,-11.89
2022-11-29T05:31:08.854Z,-11.90
2022-11-29T05:41:35.646Z,-11.90
2022-11-29T05:51:46.463Z,-11.87
2022-11-29T06:02:00.824Z,-11.83
2022-11-29T06:12:07.304Z,-11.78
2022-11-29T06:22:35.321Z,-11.74
2022-11-29T06:32:46.772Z,-11.65
2022-11-29T06:42:51.486Z,-11.55
2022-11-29T06:53:03.011Z,-11.48
2022-11-29T07:03:47.300Z,-11.42
2022-11-29T07:13:55.035Z,-11.34
2022-11-29T07:24:05.985Z,-11.26
2022-11-29T07:34:22.722Z,-11.19
2022-11-29T07:44:36.054Z,-11.12
2022-11-29T07:54:43.437Z,-11.03
2022-11-29T08:04:46.961Z,-10.92
2022-11-29T08:14:52.206Z,-10.82
2022-11-29T08:24:55.036Z,-10.73
2022-11-29T08:34:59.433Z,-10.62
2022-11-29T08:45:02.366Z,-10.50
2022-11-29T08:55:09.827Z,-10.40
2022-11-29T09:05:13.055Z,-10.29
2022-11-29T09:15:17.822Z,-10.20
2022-11-29T09:25:21.430Z,-10.11
2022-11-29T09:35:25.835Z,-10.03
2022-11-29T09:45:33.798Z,-9.97
2022-11-29T09:55:53.179Z,-9.92
2022-11-29T10:06:03.318Z,-9.89
2022-11-29T10:16:14.650Z,-9.82
2022-11-29T10:26:18.390Z,-9.74
2022-11-29T10:36:41.979Z,-9.67
2022-11-29T10:46:44.970Z,-9.59
2022-11-29T10:56:49.569Z,-9.55
2022-11-29T11:06:57.259Z,-9.50
2022-11-29T11:17:16.229Z,-9.47
2022-11-29T11:27:30.110Z,-9.45
2022-11-29T11:37:38.229Z,-9.44
2022-11-29T11:47:45.253Z,-9.45
2022-11-29T11:57:58.981Z,-9.49
2022-11-29T12:08:08.656Z,-9.52
2022-11-29T12:18:21.773Z,-9.57
2022-11-29T12:28:29.383Z,-9.62
2022-11-29T12:38:56.098Z,-9.69
2022-11-29T12:49:07.312Z,-9.76
2022-11-29T12:59:28.568Z,-9.84
2022-11-29T13:10:17.925Z,-9.93
2022-11-29T13:20:33.025Z,-10.01
2022-11-29T13:30:37.371Z,-10.10
2022-11-29T13:40:53.472Z,-10.18
2022-11-29T13:50:57.545Z,-10.25
2022-11-29T14:01:08.189Z,-10.33
2022-11-29T14:11:24.157Z,-10.40
2022-11-29T14:22:06.976Z,-10.46
2022-11-29T14:32:28.538Z,-10.53
2022-11-29T14:42:47.582Z,-10.58
2022-11-29T14:52:51.703Z,-10.64
2022-11-29T15:03:02.411Z,-10.69
2022-11-29T15:13:07.313Z,-10.74
2022-11-29T15:23:15.779Z,-10.79
2022-11-29T15:33:24.553Z,-10.83
2022-11-29T15:43:35.644Z,-10.94
2022-11-29T15:53:45.213Z,-10.98
2022-11-29T16:03:54.818Z,-11.05
2022-11-29T16:14:23.772Z,-11.12
2022-11-29T16:24:28.764Z,-11.19
2022-11-29T16:34:34.189Z,-11.25
2022-11-29T16:45:06.053Z,-11.29
2022-11-29T16:55:12.145Z,-11.32
2022-11-29T17:05:16.623Z,-11.38
2022-11-29T17:15:23.873Z,-11.43
2022-11-29T17:25:28.823Z,-11.49
2022-11-29T17:35:37.355Z,-11.54
2022-11-29T17:45:42.168Z,-11.58
2022-11-29T17:55:46.010Z,-11.62
2022-11-29T18:05:52.079Z,-11.67
2022-11-29T18:15:55.442Z,-11.71
2022-11-29T18:26:02.217Z,-11.76
2022-11-29T18:36:06.862Z,-11.81
2022-11-29T18:46:14.083Z,-11.88
2022-11-29T18:56:20.389Z,-11.94
2022-11-29T19:06:27.308Z,-11.97
2022-11-29T19:16:31.828Z,-12.04
2022-11-29T19:26:36.862Z,-12.10
2022-11-29T19:36:43.725Z,-12.14
2022-11-29T19:46:49.080Z,-12.18
2022-11-29T19:56:52.109Z,-12.24
2022-11-29T20:07:07.092Z,-12.31
2022-11-29T20:17:17.888Z,-12.39
2022-11-29T20:27:28.989Z,-12.43
2022-11-29T20:37:51.364Z,-12.52
2022-11-29T20:48:00.732Z,-12.55
2022-11-29T20:58:03.656Z,-12.60
2022-11-29T21:08:08.301Z,-12.62
2022-11-29T21:18:20.772Z,-12.63
2022-11-29T21:28:33.129Z,-12.60
2022-11-29T21:38:36.277Z,-12.56
2022-11-29T21:48:42.684Z,-12.58
2022-11-29T21:58:45.463Z,-12.58
2022-11-29T22:08:50.592Z,-12.56
2022-11-29T22:18:54.413Z,-12.52
2022-11-29T22:29:01.417Z,-12.53
2022-11-29T22:39:09.060Z,-12.49
2022-11-29T22:49:13.938Z,-12.46
2022-11-29T22:59:17.452Z,-12.42
2022-11-29T23:09:22.686Z,-12.39
2022-11-29T23:19:25.614Z,-12.36
2022-11-29T23:29:30.239Z,-12.33
2022-11-29T23:39:33.242Z,-12.30
2022-11-29T23:49:40.087Z,-12.26
2022-11-29T23:59:43.017Z,-12.24
